Meteo Giornale » Osservazioni meteo Argentina » San Fernando
ore: 18:00 - Osservazioni Meteo San Fernando
Lat. 34° 27' S Lon. 58° 35' W Alt. 4 metri s.l.m.
14 °C
Sereno
Temp. 24 Ore
10 °C
17 °C
Est/Nord-Est
13 Km/h
Dew point 11 °C
Umidità 82 %
Visibilità 10 Km
Il sole sorge alle ore 07:12
Il sole tramonta alle ore 18:36
| Data e Ora | Cielo e Fenomeni | T °C | DP °C | Um. % | Pres. hPa | Vis. km | Vento km/h | |
|---|---|---|---|---|---|---|---|---|
| Oggi h: 18:00 | Sereno | 14 | 11 | 82 | 1019 | 10 | E/NE 13 | |
| Oggi h: 17:00 | Sereno | 16 | 12 | 77 | 1019 | 10 | E/NE 13 | |
| Oggi h: 16:00 | Sereno | 16 | 12 | 77 | 1018 | 10 | E/NE 16.7 | |
| Oggi h: 15:00 | Sereno | 16 | 12 | 77 | 1019 | 10 | E 14.8 | |
| Oggi h: 14:00 | Sereno | 16 | 12 | 77 | 1019 | 10 | E 20.3 | |
| Oggi h: 13:00 | Sereno | 17 | 12 | 72 | 1020 | 10 | E 13 | |
| Oggi h: 12:00 | Sereno | 17 | 13 | 77 | 1021 | 10 | E/NE 14.8 | |
| Oggi h: 11:00 | Sereno | 17 | 12 | 72 | 1020 | 10 | E/SE 9.3 | |
| Oggi h: 10:00 | Sereno | 16 | 11 | 72 | 1020 | 10 | S 7.4 | |
| Oggi h: 09:00 | Poco Nuvoloso | 13 | 11 | 87 | 1020 | 10 | S 13 | |
| Oggi h: 08:39 | Nuvoloso | 13 | 11 | 87 | 1020 | 10 | S 11.1 | |
| Oggi h: 08:00 | Coperto | 12 | 11 | 93 | 1019 | 10 | S 13 | |
| Oggi h: 07:18 | Molto Nuvoloso | 11 | 10 | 93 | 1019 | 10 | S 9.3 | |
| Oggi h: 07:00 | Sereno | 11 | 9 | 87 | 1018 | 10 | S/SE 7.4 | |
| Oggi h: 06:18 | Poco Nuvoloso | 11 | 10 | 93 | 1018 | 10 | S 7.4 | |
| Oggi h: 06:00 | Coperto | 11 | 10 | 93 | 1018 | 10 | S 11.1 | |
| Oggi h: 05:00 | Coperto | 11 | 10 | 93 | 1018 | 10 | S 14.8 | |
| Oggi h: 04:26 | Foschia | 11 | 11 | 100 | 1018 | 2 | S/SO 20.3 | |
| Oggi h: 04:11 | Nebbia Foschia | 11 | 11 | 100 | 1017 | 2 | S/SO 13 | |
| Oggi h: 04:00 | Nebbia | 11 | 11 | 100 | 1017 | 0.9 | S/SO 11.1 | |
| Oggi h: 03:00 | Nebbia | 10 | 9 | 93 | 1018 | 0.6 | N 0 | |
| Oggi h: 02:17 | Nebbia Foschia | 12 | 12 | 100 | 1018 | 4 | N 5.5 | |
| Oggi h: 02:00 | Nebbia | 12 | 12 | 100 | 1018 | 8 | N 5.5 | |
| Oggi h: 01:00 | Sereno | 12 | 11 | 93 | 1018 | 10 | N 3.7 | |
| Oggi h: 00:00 | Nebbia | 12 | 12 | 100 | 1018 | 8 | N 5.5 | |
| Ieri h: 23:00 | Sereno | 14 | 13 | 93 | 1018 | 10 | N 0 | |
| Ieri h: 22:00 | Sereno | 14 | 13 | 93 | 1017 | 10 | N 3.7 | |
| Ieri h: 21:00 | Poco Nuvoloso | 14 | 13 | 93 | 1017 | 10 | E/SE 7.4 | |
| Ieri h: 20:00 | Molto Nuvoloso | 15 | 13 | 87 | 1016 | 10 | E/SE 13 | |
| Ieri h: 19:33 | Molto Nuvoloso | 15 | 13 | 87 | 1016 | 10 | E/SE 9.3 | |



